sensor_id;sensor_type;location;lat;lon;timestamp;P1;durP1;ratioP1;P2;durP2;ratioP2
40867;SDS011;26586;50.708;22.412;2022-08-30T00:00:24;4.30;;;2.57;;
40867;SDS011;26586;50.708;22.412;2022-08-30T00:03:10;2.90;;;2.00;;
40867;SDS011;26586;50.708;22.412;2022-08-30T00:05:39;15.27;;;8.50;;
40867;SDS011;26586;50.708;22.412;2022-08-30T00:08:07;3.72;;;2.22;;
40867;SDS011;26586;50.708;22.412;2022-08-30T00:10:33;3.83;;;2.10;;
40867;SDS011;26586;50.708;22.412;2022-08-30T00:13:00;3.63;;;2.33;;
40867;SDS011;26586;50.708;22.412;2022-08-30T00:15:26;5.10;;;2.50;;
40867;SDS011;26586;50.708;22.412;2022-08-30T00:17:53;4.38;;;2.10;;
40867;SDS011;26586;50.708;22.412;2022-08-30T00:20:21;3.23;;;2.23;;
40867;SDS011;26586;50.708;22.412;2022-08-30T00:22:51;3.92;;;2.47;;
40867;SDS011;26586;50.708;22.412;2022-08-30T00:25:17;3.20;;;2.20;;
40867;SDS011;26586;50.708;22.412;2022-08-30T00:27:44;3.40;;;2.17;;
40867;SDS011;26586;50.708;22.412;2022-08-30T00:30:11;3.72;;;2.00;;
40867;SDS011;26586;50.708;22.412;2022-08-30T00:32:39;4.80;;;2.35;;
40867;SDS011;26586;50.708;22.412;2022-08-30T00:35:06;6.30;;;2.27;;
40867;SDS011;26586;50.708;22.412;2022-08-30T00:37:34;4.18;;;2.15;;
40867;SDS011;26586;50.708;22.412;2022-08-30T00:40:01;3.67;;;1.90;;
40867;SDS011;26586;50.708;22.412;2022-08-30T00:42:30;3.85;;;2.20;;
40867;SDS011;26586;50.708;22.412;2022-08-30T00:44:57;4.40;;;2.65;;
40867;SDS011;26586;50.708;22.412;2022-08-30T00:47:24;3.10;;;1.83;;
40867;SDS011;26586;50.708;22.412;2022-08-30T00:49:51;4.38;;;2.28;;
40867;SDS011;26586;50.708;22.412;2022-08-30T00:52:20;4.47;;;2.33;;
40867;SDS011;26586;50.708;22.412;2022-08-30T00:54:48;3.22;;;2.00;;
40867;SDS011;26586;50.708;22.412;2022-08-30T00:57:16;4.68;;;2.20;;
40867;SDS011;26586;50.708;22.412;2022-08-30T00:59:43;5.38;;;2.10;;
40867;SDS011;26586;50.708;22.412;2022-08-30T01:02:12;6.72;;;2.08;;
40867;SDS011;26586;50.708;22.412;2022-08-30T01:04:38;5.93;;;2.63;;
40867;SDS011;26586;50.708;22.412;2022-08-30T01:07:06;6.43;;;2.78;;
40867;SDS011;26586;50.708;22.412;2022-08-30T01:09:34;4.13;;;2.50;;
40867;SDS011;26586;50.708;22.412;2022-08-30T01:12:01;5.72;;;2.25;;
40867;SDS011;26586;50.708;22.412;2022-08-30T01:14:28;3.65;;;2.40;;
40867;SDS011;26586;50.708;22.412;2022-08-30T01:16:57;4.65;;;1.73;;
40867;SDS011;26586;50.708;22.412;2022-08-30T01:22:29;3.58;;;1.98;;
40867;SDS011;26586;50.708;22.412;2022-08-30T01:24:58;3.53;;;2.08;;
40867;SDS011;26586;50.708;22.412;2022-08-30T01:27:27;3.95;;;1.80;;
40867;SDS011;26586;50.708;22.412;2022-08-30T01:29:54;4.10;;;2.30;;
40867;SDS011;26586;50.708;22.412;2022-08-30T01:32:23;2.95;;;1.98;;
40867;SDS011;26586;50.708;22.412;2022-08-30T01:34:54;5.68;;;1.75;;
40867;SDS011;26586;50.708;22.412;2022-08-30T01:37:23;2.28;;;1.58;;
40867;SDS011;26586;50.708;22.412;2022-08-30T01:39:54;1.88;;;1.40;;
40867;SDS011;26586;50.708;22.412;2022-08-30T01:42:20;2.72;;;1.50;;
40867;SDS011;26586;50.708;22.412;2022-08-30T01:44:47;2.20;;;1.67;;
40867;SDS011;26586;50.708;22.412;2022-08-30T01:47:14;2.33;;;1.67;;
40867;SDS011;26586;50.708;22.412;2022-08-30T01:49:43;4.82;;;1.80;;
40867;SDS011;26586;50.708;22.412;2022-08-30T01:52:09;3.67;;;1.63;;
40867;SDS011;26586;50.708;22.412;2022-08-30T01:54:36;3.30;;;1.55;;
40867;SDS011;26586;50.708;22.412;2022-08-30T01:57:08;2.42;;;1.85;;
40867;SDS011;26586;50.708;22.412;2022-08-30T01:59:37;3.20;;;1.70;;
40867;SDS011;26586;50.708;22.412;2022-08-30T02:02:05;4.03;;;1.65;;
40867;SDS011;26586;50.708;22.412;2022-08-30T02:04:31;2.53;;;1.52;;
40867;SDS011;26586;50.708;22.412;2022-08-30T02:06:57;2.30;;;1.60;;
40867;SDS011;26586;50.708;22.412;2022-08-30T02:09:23;1.90;;;1.40;;
40867;SDS011;26586;50.708;22.412;2022-08-30T02:11:50;3.38;;;1.70;;
40867;SDS011;26586;50.708;22.412;2022-08-30T02:14:16;4.50;;;1.98;;
40867;SDS011;26586;50.708;22.412;2022-08-30T02:16:42;2.20;;;1.53;;
40867;SDS011;26586;50.708;22.412;2022-08-30T02:19:08;2.47;;;1.83;;
40867;SDS011;26586;50.708;22.412;2022-08-30T02:21:34;4.35;;;1.98;;
40867;SDS011;26586;50.708;22.412;2022-08-30T02:24:00;4.03;;;2.30;;
40867;SDS011;26586;50.708;22.412;2022-08-30T02:26:27;3.00;;;1.73;;
40867;SDS011;26586;50.708;22.412;2022-08-30T02:28:53;3.47;;;1.80;;
40867;SDS011;26586;50.708;22.412;2022-08-30T02:31:20;5.15;;;1.70;;
40867;SDS011;26586;50.708;22.412;2022-08-30T02:33:48;5.65;;;1.70;;
40867;SDS011;26586;50.708;22.412;2022-08-30T02:36:15;3.13;;;1.60;;
40867;SDS011;26586;50.708;22.412;2022-08-30T02:38:42;4.30;;;1.77;;
40867;SDS011;26586;50.708;22.412;2022-08-30T02:41:08;3.05;;;1.80;;
40867;SDS011;26586;50.708;22.412;2022-08-30T02:43:34;2.38;;;1.50;;
40867;SDS011;26586;50.708;22.412;2022-08-30T02:46:00;5.03;;;2.30;;
40867;SDS011;26586;50.708;22.412;2022-08-30T02:48:27;3.40;;;1.92;;
40867;SDS011;26586;50.708;22.412;2022-08-30T02:50:53;4.43;;;2.10;;
40867;SDS011;26586;50.708;22.412;2022-08-30T02:53:19;5.25;;;2.38;;
40867;SDS011;26586;50.708;22.412;2022-08-30T02:55:47;4.03;;;2.33;;
40867;SDS011;26586;50.708;22.412;2022-08-30T02:58:13;5.90;;;2.50;;
40867;SDS011;26586;50.708;22.412;2022-08-30T03:00:40;3.37;;;2.00;;
40867;SDS011;26586;50.708;22.412;2022-08-30T03:03:06;5.20;;;2.50;;
40867;SDS011;26586;50.708;22.412;2022-08-30T03:05:33;4.38;;;2.58;;
40867;SDS011;26586;50.708;22.412;2022-08-30T03:07:59;3.53;;;2.28;;
40867;SDS011;26586;50.708;22.412;2022-08-30T03:10:26;9.35;;;2.40;;
40867;SDS011;26586;50.708;22.412;2022-08-30T03:12:53;5.07;;;2.20;;
40867;SDS011;26586;50.708;22.412;2022-08-30T03:15:20;5.47;;;2.28;;
40867;SDS011;26586;50.708;22.412;2022-08-30T03:17:53;3.90;;;2.25;;
40867;SDS011;26586;50.708;22.412;2022-08-30T03:20:20;5.30;;;2.60;;
40867;SDS011;26586;50.708;22.412;2022-08-30T03:22:47;5.43;;;2.53;;
40867;SDS011;26586;50.708;22.412;2022-08-30T03:25:14;9.10;;;2.80;;
40867;SDS011;26586;50.708;22.412;2022-08-30T03:27:40;3.55;;;2.50;;
40867;SDS011;26586;50.708;22.412;2022-08-30T03:30:07;4.70;;;2.95;;
40867;SDS011;26586;50.708;22.412;2022-08-30T03:32:34;6.65;;;2.35;;
40867;SDS011;26586;50.708;22.412;2022-08-30T03:35:00;4.18;;;2.10;;
40867;SDS011;26586;50.708;22.412;2022-08-30T03:37:26;4.90;;;2.63;;
40867;SDS011;26586;50.708;22.412;2022-08-30T03:39:53;3.70;;;2.17;;
40867;SDS011;26586;50.708;22.412;2022-08-30T03:42:21;6.45;;;2.80;;
40867;SDS011;26586;50.708;22.412;2022-08-30T03:44:48;4.72;;;2.55;;
40867;SDS011;26586;50.708;22.412;2022-08-30T03:47:14;5.95;;;2.83;;
40867;SDS011;26586;50.708;22.412;2022-08-30T03:49:41;4.03;;;2.70;;
40867;SDS011;26586;50.708;22.412;2022-08-30T03:52:07;4.68;;;2.35;;
40867;SDS011;26586;50.708;22.412;2022-08-30T03:54:34;5.30;;;3.17;;
40867;SDS011;26586;50.708;22.412;2022-08-30T03:57:01;4.40;;;2.63;;
40867;SDS011;26586;50.708;22.412;2022-08-30T03:59:27;3.65;;;2.35;;
40867;SDS011;26586;50.708;22.412;2022-08-30T04:01:53;5.18;;;2.95;;
40867;SDS011;26586;50.708;22.412;2022-08-30T04:04:19;4.88;;;2.55;;
40867;SDS011;26586;50.708;22.412;2022-08-30T04:06:45;5.50;;;3.10;;
40867;SDS011;26586;50.708;22.412;2022-08-30T04:09:11;5.75;;;2.80;;
40867;SDS011;26586;50.708;22.412;2022-08-30T04:11:37;4.85;;;2.58;;
40867;SDS011;26586;50.708;22.412;2022-08-30T04:14:03;4.65;;;2.60;;
40867;SDS011;26586;50.708;22.412;2022-08-30T04:16:30;7.28;;;3.50;;
40867;SDS011;26586;50.708;22.412;2022-08-30T04:18:56;5.10;;;2.90;;
40867;SDS011;26586;50.708;22.412;2022-08-30T04:21:22;5.40;;;2.90;;
40867;SDS011;26586;50.708;22.412;2022-08-30T04:23:50;5.07;;;2.70;;
40867;SDS011;26586;50.708;22.412;2022-08-30T04:26:16;4.00;;;3.10;;
40867;SDS011;26586;50.708;22.412;2022-08-30T04:28:42;4.93;;;2.90;;
40867;SDS011;26586;50.708;22.412;2022-08-30T04:31:09;6.82;;;2.63;;
40867;SDS011;26586;50.708;22.412;2022-08-30T04:33:36;4.00;;;2.72;;
40867;SDS011;26586;50.708;22.412;2022-08-30T04:36:03;7.38;;;3.10;;
40867;SDS011;26586;50.708;22.412;2022-08-30T04:38:32;4.40;;;2.92;;
40867;SDS011;26586;50.708;22.412;2022-08-30T04:40:59;5.10;;;3.03;;
40867;SDS011;26586;50.708;22.412;2022-08-30T04:43:26;6.50;;;3.42;;
40867;SDS011;26586;50.708;22.412;2022-08-30T04:45:53;4.90;;;2.60;;
40867;SDS011;26586;50.708;22.412;2022-08-30T04:48:20;6.35;;;3.88;;
40867;SDS011;26586;50.708;22.412;2022-08-30T04:53:13;9.15;;;3.42;;
40867;SDS011;26586;50.708;22.412;2022-08-30T04:58:08;4.85;;;3.33;;
40867;SDS011;26586;50.708;22.412;2022-08-30T05:00:35;7.32;;;4.05;;
40867;SDS011;26586;50.708;22.412;2022-08-30T05:03:02;6.00;;;3.63;;
40867;SDS011;26586;50.708;22.412;2022-08-30T05:05:29;3.83;;;3.20;;
40867;SDS011;26586;50.708;22.412;2022-08-30T05:08:08;6.65;;;3.50;;
40867;SDS011;26586;50.708;22.412;2022-08-30T05:10:39;9.10;;;3.58;;
40867;SDS011;26586;50.708;22.412;2022-08-30T05:13:08;5.70;;;3.28;;
40867;SDS011;26586;50.708;22.412;2022-08-30T05:15:35;4.72;;;3.28;;
40867;SDS011;26586;50.708;22.412;2022-08-30T05:18:02;5.53;;;3.28;;
40867;SDS011;26586;50.708;22.412;2022-08-30T05:20:29;5.90;;;2.92;;
40867;SDS011;26586;50.708;22.412;2022-08-30T05:22:55;8.43;;;4.22;;
40867;SDS011;26586;50.708;22.412;2022-08-30T05:25:23;5.53;;;3.60;;
40867;SDS011;26586;50.708;22.412;2022-08-30T05:27:52;5.32;;;3.75;;
40867;SDS011;26586;50.708;22.412;2022-08-30T05:30:18;5.07;;;3.42;;
40867;SDS011;26586;50.708;22.412;2022-08-30T05:32:45;6.47;;;3.33;;
40867;SDS011;26586;50.708;22.412;2022-08-30T05:35:12;6.28;;;3.38;;
40867;SDS011;26586;50.708;22.412;2022-08-30T05:37:40;4.82;;;3.28;;
40867;SDS011;26586;50.708;22.412;2022-08-30T05:40:06;5.38;;;3.10;;
40867;SDS011;26586;50.708;22.412;2022-08-30T05:42:34;4.43;;;3.00;;
40867;SDS011;26586;50.708;22.412;2022-08-30T05:47:27;5.47;;;3.28;;
40867;SDS011;26586;50.708;22.412;2022-08-30T05:49:53;5.28;;;3.05;;
40867;SDS011;26586;50.708;22.412;2022-08-30T05:52:19;4.77;;;3.30;;
40867;SDS011;26586;50.708;22.412;2022-08-30T05:54:50;4.40;;;3.05;;
40867;SDS011;26586;50.708;22.412;2022-08-30T05:57:18;4.55;;;3.15;;
40867;SDS011;26586;50.708;22.412;2022-08-30T05:59:45;4.68;;;3.10;;
40867;SDS011;26586;50.708;22.412;2022-08-30T06:02:11;10.33;;;3.03;;
40867;SDS011;26586;50.708;22.412;2022-08-30T06:04:37;7.50;;;3.80;;
40867;SDS011;26586;50.708;22.412;2022-08-30T06:07:04;4.57;;;2.75;;
40867;SDS011;26586;50.708;22.412;2022-08-30T06:09:30;4.57;;;2.90;;
40867;SDS011;26586;50.708;22.412;2022-08-30T06:11:57;8.25;;;3.78;;
40867;SDS011;26586;50.708;22.412;2022-08-30T06:14:23;5.97;;;3.40;;
40867;SDS011;26586;50.708;22.412;2022-08-30T06:16:49;6.32;;;2.70;;
40867;SDS011;26586;50.708;22.412;2022-08-30T06:19:16;5.97;;;3.15;;
40867;SDS011;26586;50.708;22.412;2022-08-30T06:21:45;8.85;;;3.10;;
40867;SDS011;26586;50.708;22.412;2022-08-30T06:24:13;6.53;;;2.95;;
40867;SDS011;26586;50.708;22.412;2022-08-30T06:26:40;6.03;;;2.95;;
40867;SDS011;26586;50.708;22.412;2022-08-30T06:29:09;6.50;;;2.97;;
40867;SDS011;26586;50.708;22.412;2022-08-30T06:31:37;5.88;;;3.13;;
40867;SDS011;26586;50.708;22.412;2022-08-30T06:34:04;6.47;;;3.13;;
40867;SDS011;26586;50.708;22.412;2022-08-30T06:36:30;9.00;;;3.45;;
40867;SDS011;26586;50.708;22.412;2022-08-30T06:38:57;8.77;;;3.15;;
40867;SDS011;26586;50.708;22.412;2022-08-30T06:43:51;5.50;;;2.88;;
40867;SDS011;26586;50.708;22.412;2022-08-30T06:46:20;5.35;;;3.28;;
40867;SDS011;26586;50.708;22.412;2022-08-30T06:48:51;5.32;;;3.08;;
40867;SDS011;26586;50.708;22.412;2022-08-30T06:51:18;11.55;;;4.15;;
40867;SDS011;26586;50.708;22.412;2022-08-30T06:53:46;24.48;;;11.15;;
40867;SDS011;26586;50.708;22.412;2022-08-30T06:56:13;19.58;;;10.40;;
40867;SDS011;26586;50.708;22.412;2022-08-30T06:58:40;7.25;;;4.00;;
40867;SDS011;26586;50.708;22.412;2022-08-30T07:01:09;10.90;;;3.93;;
40867;SDS011;26586;50.708;22.412;2022-08-30T07:03:38;7.88;;;3.50;;
40867;SDS011;26586;50.708;22.412;2022-08-30T07:06:04;9.35;;;3.22;;
40867;SDS011;26586;50.708;22.412;2022-08-30T07:08:31;5.97;;;2.97;;
40867;SDS011;26586;50.708;22.412;2022-08-30T07:10:57;7.82;;;3.60;;
40867;SDS011;26586;50.708;22.412;2022-08-30T07:13:23;5.22;;;3.20;;
40867;SDS011;26586;50.708;22.412;2022-08-30T07:15:50;7.57;;;4.70;;
40867;SDS011;26586;50.708;22.412;2022-08-30T07:18:16;5.05;;;3.03;;
40867;SDS011;26586;50.708;22.412;2022-08-30T07:21:12;7.25;;;3.28;;
40867;SDS011;26586;50.708;22.412;2022-08-30T07:23:42;4.68;;;2.45;;
40867;SDS011;26586;50.708;22.412;2022-08-30T07:26:10;4.35;;;2.78;;
40867;SDS011;26586;50.708;22.412;2022-08-30T07:28:41;4.93;;;2.80;;
40867;SDS011;26586;50.708;22.412;2022-08-30T07:31:08;7.13;;;2.78;;
40867;SDS011;26586;50.708;22.412;2022-08-30T07:33:36;6.53;;;2.67;;
40867;SDS011;26586;50.708;22.412;2022-08-30T07:36:04;7.10;;;2.83;;
40867;SDS011;26586;50.708;22.412;2022-08-30T07:38:31;13.43;;;3.97;;
40867;SDS011;26586;50.708;22.412;2022-08-30T07:40:58;5.45;;;3.22;;
40867;SDS011;26586;50.708;22.412;2022-08-30T07:43:29;7.30;;;2.72;;
40867;SDS011;26586;50.708;22.412;2022-08-30T07:46:03;8.93;;;6.65;;
40867;SDS011;26586;50.708;22.412;2022-08-30T07:48:31;3.63;;;2.58;;
40867;SDS011;26586;50.708;22.412;2022-08-30T07:50:58;7.60;;;3.17;;
40867;SDS011;26586;50.708;22.412;2022-08-30T07:53:25;6.93;;;3.30;;
40867;SDS011;26586;50.708;22.412;2022-08-30T07:55:52;5.75;;;2.88;;
40867;SDS011;26586;50.708;22.412;2022-08-30T07:58:18;4.85;;;2.83;;
40867;SDS011;26586;50.708;22.412;2022-08-30T08:00:45;4.53;;;2.38;;
40867;SDS011;26586;50.708;22.412;2022-08-30T08:03:11;5.13;;;2.90;;
40867;SDS011;26586;50.708;22.412;2022-08-30T08:05:41;2.95;;;2.08;;
40867;SDS011;26586;50.708;22.412;2022-08-30T08:08:10;4.43;;;3.03;;
40867;SDS011;26586;50.708;22.412;2022-08-30T08:10:39;6.40;;;2.50;;
40867;SDS011;26586;50.708;22.412;2022-08-30T08:13:10;4.28;;;2.50;;
40867;SDS011;26586;50.708;22.412;2022-08-30T08:15:36;4.25;;;2.67;;
40867;SDS011;26586;50.708;22.412;2022-08-30T08:18:04;5.95;;;2.38;;
40867;SDS011;26586;50.708;22.412;2022-08-30T08:20:31;3.78;;;2.38;;
40867;SDS011;26586;50.708;22.412;2022-08-30T08:22:59;6.28;;;2.60;;
40867;SDS011;26586;50.708;22.412;2022-08-30T08:25:25;4.25;;;2.42;;
40867;SDS011;26586;50.708;22.412;2022-08-30T08:27:54;3.22;;;2.13;;
40867;SDS011;26586;50.708;22.412;2022-08-30T08:30:23;3.55;;;2.13;;
40867;SDS011;26586;50.708;22.412;2022-08-30T08:32:49;3.67;;;2.15;;
40867;SDS011;26586;50.708;22.412;2022-08-30T08:35:16;4.68;;;2.17;;
40867;SDS011;26586;50.708;22.412;2022-08-30T08:37:45;4.82;;;3.15;;
40867;SDS011;26586;50.708;22.412;2022-08-30T08:40:13;4.05;;;2.03;;
40867;SDS011;26586;50.708;22.412;2022-08-30T08:49:23;3.05;;;2.10;;
40867;SDS011;26586;50.708;22.412;2022-08-30T08:51:26;2.95;;;1.92;;
40867;SDS011;26586;50.708;22.412;2022-08-30T08:54:24;4.70;;;1.70;;
40867;SDS011;26586;50.708;22.412;2022-08-30T08:57:03;2.17;;;1.50;;
40867;SDS011;26586;50.708;22.412;2022-08-30T08:59:32;3.00;;;2.00;;
40867;SDS011;26586;50.708;22.412;2022-08-30T09:01:59;4.13;;;1.98;;
40867;SDS011;26586;50.708;22.412;2022-08-30T09:04:36;5.13;;;2.63;;
40867;SDS011;26586;50.708;22.412;2022-08-30T09:07:26;4.65;;;1.55;;
40867;SDS011;26586;50.708;22.412;2022-08-30T09:09:59;2.47;;;1.77;;
40867;SDS011;26586;50.708;22.412;2022-08-30T09:12:25;2.25;;;1.77;;
40867;SDS011;26586;50.708;22.412;2022-08-30T09:14:53;2.72;;;1.52;;
40867;SDS011;26586;50.708;22.412;2022-08-30T09:17:25;5.20;;;1.67;;
40867;SDS011;26586;50.708;22.412;2022-08-30T09:22:24;3.97;;;1.87;;
40867;SDS011;26586;50.708;22.412;2022-08-30T09:25:18;3.45;;;1.70;;
40867;SDS011;26586;50.708;22.412;2022-08-30T09:27:52;4.40;;;1.80;;
40867;SDS011;26586;50.708;22.412;2022-08-30T09:30:21;2.60;;;1.60;;
40867;SDS011;26586;50.708;22.412;2022-08-30T09:32:54;4.82;;;1.85;;
40867;SDS011;26586;50.708;22.412;2022-08-30T09:35:24;2.85;;;1.65;;
40867;SDS011;26586;50.708;22.412;2022-08-30T09:38:15;3.67;;;1.85;;
40867;SDS011;26586;50.708;22.412;2022-08-30T09:45:35;2.35;;;1.30;;
40867;SDS011;26586;50.708;22.412;2022-08-30T09:48:26;1.70;;;1.10;;
40867;SDS011;26586;50.708;22.412;2022-08-30T09:56:26;2.72;;;1.55;;
40867;SDS011;26586;50.708;22.412;2022-08-30T10:02:00;1.85;;;1.30;;
40867;SDS011;26586;50.708;22.412;2022-08-30T10:04:45;6.18;;;1.50;;
40867;SDS011;26586;50.708;22.412;2022-08-30T10:07:39;3.90;;;1.52;;
40867;SDS011;26586;50.708;22.412;2022-08-30T10:10:39;3.10;;;1.20;;
40867;SDS011;26586;50.708;22.412;2022-08-30T10:15:46;2.30;;;1.20;;
40867;SDS011;26586;50.708;22.412;2022-08-30T10:18:20;3.13;;;1.40;;
40867;SDS011;26586;50.708;22.412;2022-08-30T10:21:21;6.10;;;1.77;;
40867;SDS011;26586;50.708;22.412;2022-08-30T10:23:56;3.20;;;1.10;;
40867;SDS011;26586;50.708;22.412;2022-08-30T10:29:24;1.70;;;1.13;;
40867;SDS011;26586;50.708;22.412;2022-08-30T10:31:57;3.15;;;1.33;;
40867;SDS011;26586;50.708;22.412;2022-08-30T10:34:26;2.45;;;1.20;;
40867;SDS011;26586;50.708;22.412;2022-08-30T10:37:02;1.63;;;1.02;;
40867;SDS011;26586;50.708;22.412;2022-08-30T10:39:34;2.53;;;1.25;;
40867;SDS011;26586;50.708;22.412;2022-08-30T10:42:10;1.40;;;1.23;;
40867;SDS011;26586;50.708;22.412;2022-08-30T10:44:42;3.88;;;1.20;;
40867;SDS011;26586;50.708;22.412;2022-08-30T10:47:23;2.20;;;1.20;;
40867;SDS011;26586;50.708;22.412;2022-08-30T10:49:59;1.38;;;1.00;;
40867;SDS011;26586;50.708;22.412;2022-08-30T10:52:40;2.38;;;1.00;;
40867;SDS011;26586;50.708;22.412;2022-08-30T10:55:25;5.43;;;1.40;;
40867;SDS011;26586;50.708;22.412;2022-08-30T10:58:02;2.03;;;1.00;;
40867;SDS011;26586;50.708;22.412;2022-08-30T11:03:26;1.25;;;0.95;;
40867;SDS011;26586;50.708;22.412;2022-08-30T11:06:26;1.50;;;1.05;;
40867;SDS011;26586;50.708;22.412;2022-08-30T11:14:50;1.48;;;0.98;;
40867;SDS011;26586;50.708;22.412;2022-08-30T11:19:53;1.10;;;1.00;;
40867;SDS011;26586;50.708;22.412;2022-08-30T11:27:57;1.50;;;1.02;;
40867;SDS011;26586;50.708;22.412;2022-08-30T11:35:44;2.90;;;1.00;;
40867;SDS011;26586;50.708;22.412;2022-08-30T11:48:43;2.53;;;1.00;;
40867;SDS011;26586;50.708;22.412;2022-08-30T11:51:28;1.90;;;1.15;;
40867;SDS011;26586;50.708;22.412;2022-08-30T11:56:52;2.13;;;1.00;;
40867;SDS011;26586;50.708;22.412;2022-08-30T12:00:08;1.10;;;0.80;;
40867;SDS011;26586;50.708;22.412;2022-08-30T12:11:00;2.00;;;1.00;;
40867;SDS011;26586;50.708;22.412;2022-08-30T12:16:18;1.95;;;1.05;;
40867;SDS011;26586;50.708;22.412;2022-08-30T12:19:36;2.55;;;1.25;;
40867;SDS011;26586;50.708;22.412;2022-08-30T12:22:03;3.35;;;1.80;;
40867;SDS011;26586;50.708;22.412;2022-08-30T12:24:34;2.28;;;1.23;;
40867;SDS011;26586;50.708;22.412;2022-08-30T12:30:09;1.33;;;1.08;;
40867;SDS011;26586;50.708;22.412;2022-08-30T12:32:46;3.65;;;1.05;;
40867;SDS011;26586;50.708;22.412;2022-08-30T12:35:22;1.63;;;1.00;;
40867;SDS011;26586;50.708;22.412;2022-08-30T12:38:11;1.63;;;1.30;;
40867;SDS011;26586;50.708;22.412;2022-08-30T12:40:52;2.03;;;1.08;;
40867;SDS011;26586;50.708;22.412;2022-08-30T12:43:30;2.05;;;1.23;;
40867;SDS011;26586;50.708;22.412;2022-08-30T12:46:02;3.55;;;1.55;;
40867;SDS011;26586;50.708;22.412;2022-08-30T12:48:34;2.22;;;1.02;;
40867;SDS011;26586;50.708;22.412;2022-08-30T12:51:03;1.52;;;0.90;;
40867;SDS011;26586;50.708;22.412;2022-08-30T12:53:35;2.10;;;1.17;;
40867;SDS011;26586;50.708;22.412;2022-08-30T12:56:13;2.85;;;1.60;;
40867;SDS011;26586;50.708;22.412;2022-08-30T12:58:47;2.45;;;1.10;;
40867;SDS011;26586;50.708;22.412;2022-08-30T13:04:10;2.90;;;1.20;;
40867;SDS011;26586;50.708;22.412;2022-08-30T13:09:28;2.75;;;0.95;;
40867;SDS011;26586;50.708;22.412;2022-08-30T13:11:56;3.33;;;1.60;;
40867;SDS011;26586;50.708;22.412;2022-08-30T13:20:00;2.03;;;0.98;;
40867;SDS011;26586;50.708;22.412;2022-08-30T13:25:49;1.15;;;0.90;;
40867;SDS011;26586;50.708;22.412;2022-08-30T13:28:16;2.50;;;1.42;;
